Santa Paula, CA (93060)

7:17 AM PDT on April 29, 2017 (GMT -0700)
Hillsborough | | Change Station
Active Advisory: Wind Advisory Active Notice: Public Information Statement

Elev 571 ft 34.36 °N, 119.07 °W | Updated 28 seconds ago

Clear
Clear
66.4 °F
Feels Like 66.4 °F
N
0.0
Wind Variable Wind from SW
Gusts 0.0 mph

Today
High -- | Low -- °F
--% Chance of Precip.
Yesterday
High -- | Low -- °F
Precip. -- in
Pressure 30.01 in
Visibility 10.0 miles
Clouds Clear
Dew Point 25 °F
Humidity 21%
Rainfall 0.00 in
Snow Depth Not available.
6:08 AM 7:39 PM
Waxing Crescent, 14% visible
METAR KCMA 291355Z 06019G25KT 10SM CLR 21/M09 A2999 RMK AO2 PK WND 06031/1313 SLP162 T02061094
Pressure 30.01 in
Visibility 10.0 miles
Clouds Clear
Dew Point 25 °F
Humidity 21%
Rainfall 0.00 in
Snow Depth Not available.
6:08 AM 7:39 PM
Waxing Crescent, 14% visible
METAR KCMA 291355Z 06019G25KT 10SM CLR 21/M09 A2999 RMK AO2 PK WND 06031/1313 SLP162 T02061094

Get Your Daily Forecast Email!

Thanks for signing up!

Be on the lookout for a verification email in your inbox.

You'll start receiving severe weather alerts in your inbox..

×

10-Day Weather Forecast

Almanac

Astronomy

Apr. 29, 2017 Rise Set
Actual Time
Civil Twilight
Nautical Twilight
Astronomical Twilight
Moon
Length of Visible Light
Length of Day
Tomorrow will be .
, % of the Moon is Illuminated

Today's Extremes

State Highs State Lows

Community

WunderPhotos

WunderBlog® & News

Nearby

Air Quality

  Air Quality AQ Index Pollutant
Not available.

Snow Depth

Station Depth Elevation

Earthquake Activity

City Distance Mag. Time & Date
Minimum magnitude displayed is 2.5.

Coastal Water Temperatures

Place Temperature

Stations

Nearby Weather Stations

Station Location Temp. Windchill Dew Point Humidity Wind Precip. Elev Updated Type
                   

Watches & Warnings

Wind Advisory
Issued: 3:08 AM PDT Apr. 29, 2017 – National Weather Service

... Wind Advisory remains in effect until 2 PM PDT this
afternoon...

* winds and timing... areas of northeast winds 20 to 30 mph with
gusts to 40 to 50 mph will develop this morning and persist
into the early afternoon.

* Impacts... gusty winds will make driving difficult, especially
for drivers of high profile vehicles.

Precautionary/preparedness actions...

When driving, use extra caution. Be prepared for sudden gusty
cross winds.